Time;durP1;ratioP1;P1;durP2;ratioP2;P2;SDS_P1;SDS_P2;PMS_P1;PMS_P2;Temp;Humidity;BMP_temperature;BMP_pressure;BME280_temperature;BME280_humidity;BME280_pressure;Samples;Min_cycle;Max_cycle;Signal;HPM_P1;HPM_P2
2022/11/07 00:02:11;;;;;;;7.38;4.85;;;;;;;9.07;100.00;100604.72;6268587;22;20008;-85
2022/11/07 00:04:36;;;;;;;8.40;5.60;;;;;;;8.96;100.00;100599.97;6271176;22;20044;-85
2022/11/07 00:07:03;;;;;;;7.53;4.95;;;;;;;8.89;100.00;100606.47;6272556;22;20007;-85
2022/11/07 00:09:28;;;;;;;8.77;5.07;;;;;;;8.84;100.00;100593.44;6273206;22;20015;-85
2022/11/07 00:11:54;;;;;;;8.80;5.13;;;;;;;8.82;100.00;100600.63;6272539;22;20004;-86
2022/11/07 00:14:20;;;;;;;8.45;5.30;;;;;;;8.78;100.00;100609.66;6270680;22;20006;-85
2022/11/07 00:16:47;;;;;;;10.77;5.38;;;;;;;8.72;100.00;100601.97;6273363;22;19999;-85
2022/11/07 00:19:15;;;;;;;8.55;5.10;;;;;;;8.72;100.00;100609.94;6272688;22;20007;-85
2022/11/07 00:21:40;;;;;;;9.52;5.50;;;;;;;8.67;100.00;100601.34;6273663;22;20007;-84
2022/11/07 00:24:07;;;;;;;13.60;5.40;;;;;;;8.64;100.00;100607.63;6272902;22;20103;-84
2022/11/07 00:26:32;;;;;;;8.07;4.90;;;;;;;8.63;100.00;100613.03;6271384;22;20007;-85
2022/11/07 00:28:58;;;;;;;10.50;5.68;;;;;;;8.59;100.00;100620.25;6271417;22;20430;-86
2022/11/07 00:31:23;;;;;;;9.02;5.25;;;;;;;8.57;100.00;100615.94;6272003;22;20011;-85
2022/11/07 00:33:49;;;;;;;11.40;5.03;;;;;;;8.58;100.00;100621.19;6273372;22;20042;-85
2022/11/07 00:36:22;;;;;;;7.65;5.00;;;;;;;8.57;100.00;100611.53;6275278;22;20042;-86
2022/11/07 00:38:47;;;;;;;11.18;5.20;;;;;;;8.58;100.00;100630.94;6274956;22;20007;-86
2022/11/07 00:41:13;;;;;;;11.15;5.25;;;;;;;8.57;100.00;100634.50;6274104;22;20570;-86
2022/11/07 00:43:39;;;;;;;12.93;5.68;;;;;;;8.51;100.00;100632.16;6271007;22;20314;-85
2022/11/07 00:46:05;;;;;;;9.65;5.35;;;;;;;8.46;100.00;100612.00;6272464;22;20008;-87
2022/11/07 00:48:32;;;;;;;12.30;5.10;;;;;;;8.50;100.00;100625.13;6273318;22;20007;-85
2022/11/07 00:51:04;;;;;;;9.27;5.55;;;;;;;8.50;100.00;100620.69;6273406;22;20004;-86
2022/11/07 00:53:29;;;;;;;9.57;5.57;;;;;;;8.52;100.00;100629.41;6272770;22;20341;-86
2022/11/07 00:55:59;;;;;;;9.55;5.35;;;;;;;8.50;100.00;100617.19;6274326;22;20004;-85
2022/11/07 00:58:25;;;;;;;10.55;5.15;;;;;;;8.50;100.00;100631.28;6273661;22;20008;-85
2022/11/07 01:00:50;;;;;;;12.10;5.32;;;;;;;8.51;100.00;100625.06;6274085;22;20007;-85
2022/11/07 01:06:01;;;;;;;9.25;5.20;;;;;;;8.57;100.00;100638.06;6273046;22;20380;-85
2022/11/07 01:08:28;;;;;;;9.38;5.22;;;;;;;8.56;100.00;100625.69;6271213;22;20086;-86
2022/11/07 01:10:53;;;;;;;9.73;5.10;;;;;;;8.56;100.00;100638.97;6273910;22;20390;-85
2022/11/07 01:13:19;;;;;;;10.52;5.28;;;;;;;8.58;100.00;100637.13;6271441;22;20035;-86
2022/11/07 01:15:44;;;;;;;11.25;4.72;;;;;;;8.64;100.00;100652.75;6274306;22;20004;-84
2022/11/07 01:18:10;;;;;;;10.63;5.43;;;;;;;8.67;100.00;100646.44;6273458;22;20379;-85
2022/11/07 01:20:35;;;;;;;12.65;5.68;;;;;;;8.64;100.00;100647.44;6273419;22;20641;-86
2022/11/07 01:23:01;;;;;;;10.55;4.95;;;;;;;8.59;100.00;100649.44;6275736;22;20003;-86
2022/11/07 01:25:26;;;;;;;9.35;4.70;;;;;;;8.57;100.00;100661.94;6274559;22;20004;-86
2022/11/07 01:27:52;;;;;;;9.00;4.72;;;;;;;8.61;100.00;100665.28;6275159;22;20000;-86
2022/11/07 01:30:17;;;;;;;8.77;4.40;;;;;;;8.67;100.00;100675.63;6277467;22;20011;-83
2022/11/07 01:32:42;;;;;;;9.90;4.90;;;;;;;8.66;100.00;100666.81;6274112;22;20083;-85
2022/11/07 01:35:08;;;;;;;9.02;4.72;;;;;;;8.70;100.00;100675.50;6272306;22;20304;-85
2022/11/07 01:37:33;;;;;;;8.63;4.60;;;;;;;8.79;100.00;100658.28;6275238;22;20014;-84
2022/11/07 01:39:58;;;;;;;8.40;4.40;;;;;;;8.91;100.00;100674.50;6273758;22;20000;-84
2022/11/07 01:42:24;;;;;;;10.20;4.93;;;;;;;8.97;100.00;100673.34;6270987;22;20354;-85
2022/11/07 01:44:55;;;;;;;11.77;5.15;;;;;;;9.04;100.00;100671.28;6271298;22;20054;-84
2022/11/07 01:47:23;;;;;;;12.38;4.68;;;;;;;9.06;100.00;100664.09;6272078;22;20062;-84
2022/11/07 01:49:49;;;;;;;13.25;4.80;;;;;;;9.03;100.00;100654.50;6273366;22;20054;-86
2022/11/07 01:52:22;;;;;;;9.02;4.25;;;;;;;8.95;100.00;100646.03;6273758;22;20000;-85
2022/11/07 01:54:51;;;;;;;9.23;5.22;;;;;;;8.96;100.00;100656.56;6271151;22;20061;-85
2022/11/07 01:57:28;;;;;;;9.90;4.55;;;;;;;8.90;100.00;100656.88;6272688;22;19999;-85
2022/11/07 01:59:56;;;;;;;10.32;4.50;;;;;;;8.90;100.00;100662.16;6270888;22;20000;-85
2022/11/07 02:02:24;;;;;;;8.80;4.80;;;;;;;8.87;100.00;100664.09;6272267;22;20007;-84
2022/11/07 02:04:49;;;;;;;9.35;5.00;;;;;;;8.86;100.00;100660.59;6272194;22;20007;-85
2022/11/07 02:07:22;;;;;;;10.35;4.95;;;;;;;8.83;100.00;100666.03;6271806;22;20086;-85
2022/11/07 02:09:48;;;;;;;12.50;5.63;;;;;;;8.83;100.00;100670.47;6272874;22;20027;-85
2022/11/07 02:12:15;;;;;;;12.25;5.15;;;;;;;8.85;100.00;100668.59;6272161;22;20307;-86
2022/11/07 02:14:41;;;;;;;11.38;4.85;;;;;;;8.82;100.00;100663.44;6271935;22;20000;-85
2022/11/07 02:17:07;;;;;;;10.60;5.30;;;;;;;8.81;100.00;100662.56;6271861;22;20432;-85
2022/11/07 02:19:34;;;;;;;13.65;5.18;;;;;;;8.82;100.00;100666.09;6272432;22;20011;-85
2022/11/07 02:22:39;;;;;;;10.75;4.90;;;;;;;8.83;100.00;100674.00;6273765;22;20006;-85
2022/11/07 02:25:11;;;;;;;12.70;4.85;;;;;;;8.87;100.00;100670.28;6252127;22;20594;-86
2022/11/07 02:27:39;;;;;;;10.65;5.00;;;;;;;8.85;100.00;100674.78;6276338;22;20003;-86
2022/11/07 02:30:15;;;;;;;12.82;5.47;;;;;;;8.88;100.00;100668.47;6271487;22;20498;-85
2022/11/07 02:32:40;;;;;;;13.80;5.40;;;;;;;8.80;100.00;100668.81;6271397;22;19999;-85
2022/11/07 02:35:34;;;;;;;12.50;5.53;;;;;;;8.82;100.00;100669.63;6272585;22;20010;-86
2022/11/07 02:38:03;;;;;;;11.38;5.00;;;;;;;8.79;100.00;100680.38;6261166;22;20051;-84
2022/11/07 02:40:30;;;;;;;12.38;5.13;;;;;;;8.77;100.00;100674.25;6272454;22;20007;-85
2022/11/07 02:42:57;;;;;;;16.42;6.00;;;;;;;8.76;100.00;100669.03;6274819;22;20034;-86
2022/11/07 02:45:26;;;;;;;12.23;5.38;;;;;;;8.73;100.00;100662.06;6272584;22;20033;-85
2022/11/07 02:47:52;;;;;;;9.52;5.25;;;;;;;8.75;100.00;100670.84;6272111;22;20004;-84
2022/11/07 02:50:17;;;;;;;14.80;5.32;;;;;;;8.76;100.00;100671.69;6271265;22;20068;-84
2022/11/07 02:52:42;;;;;;;11.70;5.30;;;;;;;8.84;100.00;100659.78;6272791;22;20424;-84
2022/11/07 02:55:09;;;;;;;12.73;5.47;;;;;;;8.83;100.00;100666.03;6272295;22;20011;-84
2022/11/07 02:57:34;;;;;;;11.57;5.10;;;;;;;8.82;100.00;100661.66;6273546;22;20046;-85
2022/11/07 03:00:00;;;;;;;12.95;5.03;;;;;;;8.79;100.00;100675.06;6273770;22;20000;-85
2022/11/07 03:02:25;;;;;;;13.55;5.72;;;;;;;8.82;100.00;100663.44;6272596;22;20003;-86
2022/11/07 03:04:51;;;;;;;10.65;4.90;;;;;;;8.82;100.00;100664.31;6273968;22;20008;-85
2022/11/07 03:07:16;;;;;;;12.57;5.63;;;;;;;8.77;100.00;100671.59;6273563;22;20041;-85
2022/11/07 03:09:42;;;;;;;14.73;5.10;;;;;;;8.74;100.00;100655.84;6275595;22;20061;-85
2022/11/07 03:12:07;;;;;;;16.30;5.45;;;;;;;8.78;100.00;100678.66;6274039;22;20007;-85
2022/11/07 03:14:33;;;;;;;15.60;5.22;;;;;;;8.76;100.00;100675.19;6273154;22;20518;-84
2022/11/07 03:16:58;;;;;;;13.70;5.03;;;;;;;8.72;100.00;100677.13;6278300;22;20040;-84
2022/11/07 03:19:23;;;;;;;13.60;5.20;;;;;;;8.69;100.00;100666.69;6280569;22;20059;-83
2022/11/07 03:21:49;;;;;;;10.73;5.15;;;;;;;8.76;100.00;100674.34;6276150;22;20007;-85
2022/11/07 03:24:15;;;;;;;16.15;5.32;;;;;;;8.83;100.00;100681.09;6277684;22;20459;-84
2022/11/07 03:26:40;;;;;;;10.52;4.60;;;;;;;8.86;100.00;100673.88;6276213;22;20042;-84
2022/11/07 03:29:05;;;;;;;16.40;4.82;;;;;;;8.88;100.00;100669.31;6272976;22;20011;-83
2022/11/07 03:31:31;;;;;;;17.23;5.53;;;;;;;8.89;100.00;100670.19;6273197;22;20000;-85
2022/11/07 03:33:56;;;;;;;10.25;4.80;;;;;;;8.91;100.00;100668.34;6272117;22;20544;-85
2022/11/07 03:36:21;;;;;;;10.00;4.50;;;;;;;8.92;100.00;100683.31;6274393;22;20462;-84
2022/11/07 03:38:47;;;;;;;12.05;4.60;;;;;;;8.96;100.00;100679.59;6273097;22;20014;-84
2022/11/07 03:41:16;;;;;;;10.50;4.65;;;;;;;9.01;100.00;100671.41;6274646;22;20430;-84
2022/11/07 03:43:44;;;;;;;10.75;4.68;;;;;;;9.04;100.00;100663.31;6273305;22;20075;-85
2022/11/07 03:46:10;;;;;;;16.35;5.00;;;;;;;9.10;100.00;100670.97;6272920;22;20010;-85
2022/11/07 03:48:36;;;;;;;14.15;4.60;;;;;;;9.11;100.00;100680.66;6272250;22;20360;-84
2022/11/07 03:51:01;;;;;;;13.27;5.07;;;;;;;9.12;100.00;100664.66;6270630;22;20058;-85
2022/11/07 03:53:26;;;;;;;14.73;4.57;;;;;;;9.13;100.00;100673.50;6268353;22;20008;-84
2022/11/07 03:55:54;;;;;;;14.05;5.30;;;;;;;9.12;100.00;100671.78;6294831;22;20086;-84
2022/11/07 03:58:19;;;;;;;14.18;4.60;;;;;;;9.08;100.00;100675.50;6271798;22;20069;-84
2022/11/07 04:00:45;;;;;;;14.73;4.95;;;;;;;9.06;100.00;100677.34;6273718;22;20039;-85
2022/11/07 04:03:10;;;;;;;12.50;4.55;;;;;;;9.04;100.00;100680.09;6270468;22;20091;-84
2022/11/07 04:05:35;;;;;;;12.80;4.57;;;;;;;9.05;100.00;100673.00;6270738;22;20000;-85
2022/11/07 04:08:00;;;;;;;15.65;4.95;;;;;;;9.01;100.00;100666.97;6270685;22;20046;-84
2022/11/07 04:10:26;;;;;;;14.65;4.82;;;;;;;9.07;100.00;100668.44;6273181;22;20074;-85
2022/11/07 04:18:21;;;;;;;14.63;5.10;;;;;;;9.05;100.00;100673.00;6272067;22;20018;-84
2022/11/07 04:20:47;;;;;;;14.90;4.60;;;;;;;9.01;100.00;100674.06;6272650;22;20409;-85
2022/11/07 04:23:12;;;;;;;17.95;5.15;;;;;;;8.98;100.00;100675.91;6273624;22;20007;-84
2022/11/07 04:28:21;;;;;;;15.88;4.63;;;;;;;8.92;100.00;100660.28;6275935;22;20019;-84
2022/11/07 04:30:46;;;;;;;15.60;4.50;;;;;;;8.95;100.00;100665.47;6279073;22;20012;-85
2022/11/07 04:33:12;;;;;;;16.45;4.35;;;;;;;8.93;100.00;100667.31;6276663;22;20007;-85
2022/11/07 04:35:37;;;;;;;16.58;5.03;;;;;;;8.93;100.00;100667.31;6272989;22;20011;-85
2022/11/07 04:38:02;;;;;;;15.43;4.80;;;;;;;8.91;100.00;100669.19;6272437;22;20010;-85
2022/11/07 04:40:28;;;;;;;12.15;4.20;;;;;;;8.90;100.00;100678.09;6274155;22;20022;-84
2022/11/07 04:42:54;;;;;;;16.17;4.93;;;;;;;8.89;100.00;100679.00;6271353;22;20425;-84
2022/11/07 04:45:19;;;;;;;15.95;4.93;;;;;;;8.83;100.00;100675.78;6273062;22;20049;-85
2022/11/07 04:47:45;;;;;;;13.77;4.40;;;;;;;8.88;100.00;100677.28;6272929;22;20004;-86
2022/11/07 04:50:13;;;;;;;20.00;5.45;;;;;;;8.94;100.00;100679.66;6269543;22;20014;-86
2022/11/07 04:52:38;;;;;;;15.68;4.60;;;;;;;8.91;100.00;100663.88;6271951;22;20008;-85
2022/11/07 04:55:05;;;;;;;15.68;4.65;;;;;;;8.98;100.00;100675.06;6271937;22;19996;-83
2022/11/07 04:57:30;;;;;;;16.27;4.65;;;;;;;8.98;100.00;100681.22;6273643;22;20470;-86
2022/11/07 04:59:55;;;;;;;16.23;4.70;;;;;;;9.01;100.00;100676.72;6272243;22;20043;-84
2022/11/07 05:02:24;;;;;;;15.25;4.70;;;;;;;9.00;100.00;100669.69;6270856;22;20011;-83
2022/11/07 05:04:50;;;;;;;14.90;4.47;;;;;;;9.02;100.00;100675.78;6271687;22;20058;-85
2022/11/07 05:07:16;;;;;;;16.40;4.68;;;;;;;9.04;100.00;100673.94;6271923;22;20019;-83
2022/11/07 05:09:41;;;;;;;17.02;4.72;;;;;;;9.05;100.00;100670.34;6273166;22;20011;-85
2022/11/07 05:12:07;;;;;;;15.75;4.55;;;;;;;9.06;100.00;100680.88;6270966;22;20008;-85
2022/11/07 05:14:34;;;;;;;16.80;4.97;;;;;;;9.07;100.00;100684.38;6269842;22;20007;-86
2022/11/07 05:17:00;;;;;;;16.83;4.55;;;;;;;9.06;100.00;100674.69;6270772;22;19999;-85
2022/11/07 05:19:25;;;;;;;17.08;4.68;;;;;;;9.07;100.00;100681.72;6270955;22;20452;-85
2022/11/07 05:23:10;;;;;;;15.75;4.40;;;;;;;9.06;100.00;100683.53;6271203;22;20023;-83
2022/11/07 05:24:36;;;;;;;11.43;4.30;;;;;;;8.98;100.00;100683.03;6272574;22;20069;-85
2022/11/07 05:27:02;;;;;;;13.27;3.95;;;;;;;9.00;100.00;100688.28;6271868;22;20015;-84
2022/11/07 05:29:27;;;;;;;17.42;4.20;;;;;;;9.01;100.00;100690.84;6272666;22;20003;-84
2022/11/07 05:31:52;;;;;;;17.42;4.47;;;;;;;9.08;100.00;100686.13;6271091;22;19999;-84
2022/11/07 05:34:18;;;;;;;14.80;4.70;;;;;;;9.17;100.00;100683.03;6270747;22;20011;-83
2022/11/07 05:36:43;;;;;;;14.50;4.93;;;;;;;9.19;100.00;100689.97;6273954;22;19999;-84
2022/11/07 05:39:08;;;;;;;14.95;4.00;;;;;;;9.26;100.00;100693.22;6274135;22;20090;-84
2022/11/07 05:41:34;;;;;;;16.48;4.78;;;;;;;9.27;100.00;100692.25;6272390;22;20030;-85
2022/11/07 05:43:59;;;;;;;13.90;4.15;;;;;;;9.30;100.00;100691.28;6271324;22;20006;-84
2022/11/07 05:46:24;;;;;;;12.07;4.10;;;;;;;9.35;100.00;100694.56;6270971;22;20000;-84
2022/11/07 05:48:50;;;;;;;12.65;4.22;;;;;;;9.34;100.00;100699.00;6270746;22;20083;-84
2022/11/07 05:51:15;;;;;;;13.35;4.20;;;;;;;9.35;100.00;100692.75;6271203;22;20000;-85
2022/11/07 05:53:40;;;;;;;13.68;4.10;;;;;;;9.39;100.00;100696.13;6272564;22;19999;-83
2022/11/07 05:56:06;;;;;;;14.13;4.22;;;;;;;9.42;100.00;100693.34;6272385;22;20073;-84
2022/11/07 05:58:31;;;;;;;14.65;4.22;;;;;;;9.38;100.00;100689.09;6271730;22;20086;-85
2022/11/07 06:01:01;;;;;;;15.35;4.65;;;;;;;9.41;100.00;100694.28;6271070;22;20061;-83
2022/11/07 06:03:27;;;;;;;12.82;3.97;;;;;;;9.41;100.00;100689.81;6272725;22;20022;-84
2022/11/07 06:05:52;;;;;;;14.52;4.30;;;;;;;9.44;100.00;100697.63;6279309;22;20003;-84
2022/11/07 06:08:17;;;;;;;13.80;4.10;;;;;;;9.39;100.00;100683.72;6282535;22;20014;-84
2022/11/07 06:10:43;;;;;;;12.93;4.20;;;;;;;9.38;100.00;100684.66;6276605;22;20389;-84
2022/11/07 06:13:14;;;;;;;21.17;4.85;;;;;;;9.41;100.00;100689.81;6274984;22;20014;-84
2022/11/07 06:15:40;;;;;;;15.25;4.80;;;;;;;9.43;100.00;100690.59;6273160;22;20479;-82
2022/11/07 06:18:10;;;;;;;14.80;4.40;;;;;;;9.44;100.00;100694.09;6276382;22;19999;-84
2022/11/07 06:20:35;;;;;;;17.83;5.50;;;;;;;9.47;100.00;100684.19;6275076;22;20007;-83
2022/11/07 06:23:02;;;;;;;17.33;4.88;;;;;;;9.48;100.00;100703.66;6274582;22;20042;-83
2022/11/07 06:25:28;;;;;;;16.83;5.05;;;;;;;9.51;100.00;100711.47;6276302;22;20035;-85
2022/11/07 06:28:01;;;;;;;14.10;4.88;;;;;;;9.53;100.00;100704.31;6273638;22;20010;-83
2022/11/07 06:30:27;;;;;;;14.38;4.43;;;;;;;9.62;100.00;100700.34;6271701;22;20085;-83
2022/11/07 06:32:52;;;;;;;13.45;4.35;;;;;;;9.67;100.00;100706.28;6269800;22;20000;-84
2022/11/07 06:35:17;;;;;;;15.65;4.13;;;;;;;9.68;100.00;100705.34;6270915;22;20361;-84
2022/11/07 06:37:42;;;;;;;18.65;5.05;;;;;;;9.67;100.00;100706.28;6271169;22;20063;-83
2022/11/07 06:40:08;;;;;;;13.77;4.35;;;;;;;9.69;100.00;100715.88;6268919;22;20695;-84
2022/11/07 06:42:34;;;;;;;14.45;4.53;;;;;;;9.73;100.00;100716.59;6270226;22;20532;-83
2022/11/07 06:44:59;;;;;;;16.13;4.35;;;;;;;9.76;100.00;100719.13;6271878;22;20031;-84
2022/11/07 06:47:24;;;;;;;15.18;4.20;;;;;;;9.80;100.00;100722.50;6272474;22;20422;-83
2022/11/07 06:49:50;;;;;;;11.45;4.03;;;;;;;9.82;100.00;100716.13;6270959;22;20006;-82
2022/11/07 06:52:15;;;;;;;14.32;4.20;;;;;;;9.80;100.00;100712.72;6270260;22;20004;-83
2022/11/07 06:54:41;;;;;;;16.95;4.50;;;;;;;9.85;100.00;100713.34;6271465;22;20057;-84
2022/11/07 06:57:07;;;;;;;16.17;4.30;;;;;;;9.85;100.00;100718.66;6267826;22;20082;-83
2022/11/07 06:59:32;;;;;;;17.63;4.63;;;;;;;9.87;100.00;100729.22;6269956;22;20093;-83
2022/11/07 07:01:58;;;;;;;16.17;4.10;;;;;;;9.88;100.00;100728.28;6268114;22;20010;-83
2022/11/07 07:04:23;;;;;;;14.13;4.43;;;;;;;9.87;100.00;100731.88;6271679;22;20019;-86
2022/11/07 07:06:48;;;;;;;15.00;3.88;;;;;;;9.89;100.00;100722.88;6271243;22;20091;-85
2022/11/07 07:09:13;;;;;;;10.52;4.00;;;;;;;10.00;100.00;100746.28;6271327;22;20004;-84
2022/11/07 07:11:41;;;;;;;15.52;3.85;;;;;;;10.01;100.00;100731.19;6272725;22;20383;-85
2022/11/07 07:14:06;;;;;;;16.85;4.15;;;;;;;10.09;100.00;100744.97;6273040;22;20008;-85
2022/11/07 07:16:32;;;;;;;16.77;4.20;;;;;;;10.10;100.00;100750.19;6274193;22;19999;-84
2022/11/07 07:18:57;;;;;;;13.80;4.55;;;;;;;10.13;100.00;100744.72;6277537;22;20023;-86
2022/11/07 07:21:22;;;;;;;10.93;3.75;;;;;;;10.19;100.00;100752.38;6277182;22;20110;-84
2022/11/07 07:23:48;;;;;;;12.38;4.20;;;;;;;10.23;100.00;100763.72;6274732;22;20019;-85
2022/11/07 07:26:15;;;;;;;17.73;4.55;;;;;;;10.25;100.00;100766.38;6270249;22;20012;-84
2022/11/07 07:28:41;;;;;;;17.75;3.90;;;;;;;10.26;100.00;100754.78;6270359;22;20003;-85
2022/11/07 07:31:12;;;;;;;13.45;4.10;;;;;;;10.34;100.00;100766.75;6270642;22;20495;-85
2022/11/07 07:33:38;;;;;;;13.68;4.13;;;;;;;10.37;100.00;100771.91;6272744;22;20010;-85
2022/11/07 07:36:04;;;;;;;15.05;4.35;;;;;;;10.42;100.00;100772.53;6275378;22;20003;-85
2022/11/07 07:38:30;;;;;;;12.63;4.25;;;;;;;10.44;100.00;100778.63;6271297;22;20008;-82
2022/11/07 07:40:57;;;;;;;15.38;3.85;;;;;;;10.43;100.00;100771.59;6268441;22;20439;-85
2022/11/07 07:43:22;;;;;;;13.77;4.20;;;;;;;10.47;100.00;100780.28;6269983;22;19996;-84
2022/11/07 07:45:48;;;;;;;13.10;3.95;;;;;;;10.50;100.00;100793.44;6270424;22;20392;-83
2022/11/07 07:48:13;;;;;;;13.18;3.47;;;;;;;10.51;100.00;100786.31;6270721;22;20007;-84
2022/11/07 07:50:38;;;;;;;19.10;4.28;;;;;;;10.53;100.00;100787.94;6269515;22;20004;-84
2022/11/07 07:53:03;;;;;;;15.82;4.00;;;;;;;10.53;100.00;100782.63;6267892;22;20426;-84
2022/11/07 07:55:29;;;;;;;14.52;4.10;;;;;;;10.50;100.00;100784.59;6269952;22;20108;-83
2022/11/07 07:57:54;;;;;;;10.48;3.45;;;;;;;10.57;100.00;100788.63;6270694;22;20049;-84
2022/11/07 08:00:19;;;;;;;10.63;3.35;;;;;;;10.48;100.00;100787.31;6269945;22;20422;-84
2022/11/07 08:02:45;;;;;;;12.55;4.05;;;;;;;10.49;100.00;100797.00;6267763;22;20011;-84
2022/11/07 08:05:11;;;;;;;10.48;3.50;;;;;;;10.51;100.00;100796.97;6269336;22;20445;-83
2022/11/07 08:07:47;;;;;;;15.60;3.80;;;;;;;10.59;100.00;100798.28;6269049;22;20038;-85
2022/11/07 08:10:13;;;;;;;19.25;4.75;;;;;;;10.73;100.00;100806.41;6269298;22;20008;-84
2022/11/07 08:12:45;;;;;;;14.60;4.15;;;;;;;10.88;100.00;100802.09;6268629;22;20091;-84
2022/11/07 08:15:12;;;;;;;13.45;3.85;;;;;;;10.93;100.00;100802.69;6269931;22;20000;-84
2022/11/07 08:17:38;;;;;;;12.90;4.00;;;;;;;10.84;100.00;100797.88;6272938;22;20495;-85
2022/11/07 08:20:09;;;;;;;9.90;3.60;;;;;;;10.76;100.00;100797.41;6274546;22;20008;-84
2022/11/07 08:22:38;;;;;;;13.07;3.40;;;;;;;10.68;100.00;100808.44;6275565;22;19999;-82
2022/11/07 08:25:09;;;;;;;13.27;4.13;;;;;;;10.74;100.00;100812.59;6276342;22;19999;-85
2022/11/07 08:27:38;;;;;;;15.75;4.68;;;;;;;10.83;100.00;100801.47;6276752;22;20003;-83
2022/11/07 08:30:06;;;;;;;11.90;3.40;;;;;;;11.01;100.00;100804.97;6276233;22;20015;-83
2022/11/07 08:32:33;;;;;;;14.80;4.15;;;;;;;11.15;100.00;100807.72;6275529;22;20008;-85
2022/11/07 08:34:58;;;;;;;15.70;4.55;;;;;;;11.33;100.00;100813.91;6275201;22;20030;-85
2022/11/07 08:37:27;;;;;;;12.57;3.50;;;;;;;11.46;100.00;100814.09;6272316;22;20007;-84
2022/11/07 08:39:53;;;;;;;11.02;3.35;;;;;;;11.52;100.00;100818.19;6274420;22;20038;-85
2022/11/07 08:42:18;;;;;;;10.88;3.47;;;;;;;11.46;100.00;100812.28;6274739;22;20006;-83
2022/11/07 08:44:43;;;;;;;11.32;3.58;;;;;;;11.44;100.00;100814.16;6274793;22;20000;-84
2022/11/07 08:47:09;;;;;;;10.10;3.67;;;;;;;11.53;100.00;100809.25;6273778;22;20015;-84
2022/11/07 08:49:35;;;;;;;12.27;3.50;;;;;;;11.58;100.00;100829.41;6269764;22;20039;-84
2022/11/07 08:52:00;;;;;;;13.27;3.53;;;;;;;11.63;99.57;100829.13;6268415;22;20418;-83
2022/11/07 08:54:27;;;;;;;12.98;3.88;;;;;;;11.60;99.62;100815.97;6270855;22;20042;-83
2022/11/07 08:56:53;;;;;;;14.85;4.07;;;;;;;11.61;99.50;100834.53;6271512;22;20031;-84
2022/11/07 08:59:19;;;;;;;10.88;3.65;;;;;;;11.61;99.86;100831.88;6272024;22;20012;-83
2022/11/07 09:01:44;;;;;;;15.68;3.70;;;;;;;11.64;100.00;100834.38;6271335;22;20329;-83
2022/11/07 09:04:09;;;;;;;16.02;4.32;;;;;;;11.67;99.91;100836.03;6269756;22;20011;-84
2022/11/07 09:06:35;;;;;;;10.35;3.78;;;;;;;11.66;99.54;100824.50;6270787;22;20101;-84
2022/11/07 09:09:01;;;;;;;12.27;4.15;;;;;;;11.64;99.44;100844.19;6269357;22;20010;-84
2022/11/07 09:11:26;;;;;;;16.63;4.32;;;;;;;11.54;99.96;100840.31;6269369;22;20170;-84
2022/11/07 09:13:53;;;;;;;12.32;3.85;;;;;;;11.51;100.00;100848.47;6267738;22;20012;-83
2022/11/07 09:16:19;;;;;;;14.20;3.88;;;;;;;11.52;100.00;100836.84;6269325;22;20011;-82
2022/11/07 09:18:46;;;;;;;12.70;3.78;;;;;;;11.61;100.00;100855.00;6267614;22;20034;-83
2022/11/07 09:21:12;;;;;;;13.50;4.15;;;;;;;11.69;100.00;100844.78;6265516;22;20007;-84
2022/11/07 09:23:38;;;;;;;14.05;4.68;;;;;;;11.73;100.00;100851.66;6268430;22;20003;-82
2022/11/07 09:26:04;;;;;;;11.50;3.83;;;;;;;11.83;99.47;100852.94;6268604;22;20007;-82
2022/11/07 09:28:29;;;;;;;14.68;4.07;;;;;;;11.92;99.32;100855.06;6269057;22;20403;-81
2022/11/07 09:30:56;;;;;;;12.32;3.90;;;;;;;12.04;98.11;100865.97;6268645;22;20080;-81
2022/11/07 09:33:23;;;;;;;13.02;4.05;;;;;;;12.07;98.65;100858.66;6265741;22;20011;-82
2022/11/07 09:35:48;;;;;;;9.32;3.33;;;;;;;12.07;98.00;100861.31;6268796;22;20018;-83
2022/11/07 09:38:15;;;;;;;13.02;4.05;;;;;;;12.03;98.62;100875.78;6267419;22;20011;-82
2022/11/07 09:41:05;;;;;;;13.98;3.97;;;;;;;11.94;99.17;100860.31;6267619;22;20085;-82
2022/11/07 09:43:42;;;;;;;11.10;3.53;;;;;;;11.78;100.00;100870.94;6266394;22;20010;-85
2022/11/07 09:46:33;;;;;;;13.38;4.18;;;;;;;11.62;100.00;100870.06;6269136;22;20012;-82
2022/11/07 09:49:12;;;;;;;13.10;3.75;;;;;;;11.52;100.00;100871.50;6268475;22;19999;-83
2022/11/07 09:51:40;;;;;;;15.52;4.05;;;;;;;11.47;100.00;100866.44;6270134;22;19999;-82
2022/11/07 09:54:14;;;;;;;12.38;4.18;;;;;;;11.45;100.00;100871.84;6270112;22;20515;-84
2022/11/07 09:56:41;;;;;;;16.15;4.47;;;;;;;11.51;100.00;100873.31;6269602;22;20016;-84
2022/11/07 09:59:12;;;;;;;16.08;4.45;;;;;;;11.61;100.00;100873.66;6270119;22;20472;-83
2022/11/07 10:01:37;;;;;;;13.48;3.92;;;;;;;11.70;100.00;100870.50;6269073;22;20031;-82
2022/11/07 10:04:03;;;;;;;17.25;4.00;;;;;;;11.84;100.00;100865.31;6268222;22;20491;-80
2022/11/07 10:06:32;;;;;;;17.48;4.15;;;;;;;12.08;100.00;100860.41;6270079;22;20004;-84
2022/11/07 10:09:16;;;;;;;13.48;3.90;;;;;;;12.41;98.83;100868.25;6271918;22;20784;-83
2022/11/07 10:12:04;;;;;;;13.48;3.58;;;;;;;12.77;96.80;100872.41;6275537;22;20069;-83
2022/11/07 10:14:59;;;;;;;16.20;4.18;;;;;;;12.96;94.88;100862.34;6272162;22;20008;-79
2022/11/07 10:17:40;;;;;;;13.60;3.60;;;;;;;13.22;93.89;100867.91;6235027;22;19999;-82
2022/11/07 10:20:21;;;;;;;12.75;3.85;;;;;;;13.32;92.48;100871.75;6270710;22;20330;-83
2022/11/07 10:23:20;;;;;;;14.90;3.80;;;;;;;13.38;91.86;100881.22;6270272;22;20000;-80
2022/11/07 10:25:48;;;;;;;13.40;3.67;;;;;;;13.28;90.54;100877.38;6270426;22;20007;-83
2022/11/07 10:28:16;;;;;;;13.77;3.30;;;;;;;13.38;91.05;100876.72;6269554;22;20004;-81
2022/11/07 10:30:50;;;;;;;11.05;3.30;;;;;;;13.51;89.37;100871.47;6268982;22;20003;-81
2022/11/07 10:33:30;;;;;;;9.60;3.40;;;;;;;13.51;88.59;100878.63;6266903;22;20034;-81
2022/11/07 10:36:23;;;;;;;12.88;3.83;;;;;;;13.63;88.90;100888.56;6270555;22;19999;-80
2022/11/07 10:38:48;;;;;;;15.13;3.50;;;;;;;13.76;87.36;100878.81;6257403;22;20004;-81
2022/11/07 10:41:21;;;;;;;18.40;3.67;;;;;;;13.82;87.52;100889.09;6272442;22;20008;-83
2022/11/07 10:43:51;;;;;;;20.05;3.67;;;;;;;13.94;87.29;100874.09;6270902;22;20035;-82
2022/11/07 10:46:24;;;;;;;15.65;3.67;;;;;;;14.03;85.99;100888.69;6269634;22;20004;-83
2022/11/07 10:48:55;;;;;;;12.88;3.47;;;;;;;13.87;85.91;100896.84;6271568;22;20013;-83
2022/11/07 10:51:41;;;;;;;14.52;3.63;;;;;;;13.81;86.92;100903.44;6269817;22;20318;-82
2022/11/07 10:54:25;;;;;;;11.60;3.83;;;;;;;13.73;86.99;100905.75;6269910;22;20007;-80
2022/11/07 10:57:09;;;;;;;13.20;3.95;;;;;;;13.72;87.82;100897.84;6272980;22;20004;-81
2022/11/07 10:59:43;;;;;;;13.48;3.88;;;;;;;13.64;86.70;100891.13;6272918;22;20426;-80
2022/11/07 11:02:26;;;;;;;13.38;3.33;;;;;;;13.65;86.47;100902.69;6271410;22;20000;-81
2022/11/07 11:05:03;;;;;;;12.90;3.00;;;;;;;13.50;86.01;100898.28;6272505;22;20099;-79
2022/11/07 11:07:38;;;;;;;11.50;3.53;;;;;;;13.33;87.11;100894.84;6270779;22;20739;-80
2022/11/07 11:10:17;;;;;;;17.50;4.25;;;;;;;13.25;87.78;100891.81;6270859;22;20346;-80
2022/11/07 11:12:45;;;;;;;14.50;3.83;;;;;;;13.20;87.10;100904.53;6269743;22;20004;-81
2022/11/07 11:15:16;;;;;;;12.60;3.38;;;;;;;13.16;88.33;100900.34;6270805;22;20000;-80
2022/11/07 11:17:43;;;;;;;15.38;3.42;;;;;;;13.17;87.34;100896.72;6271495;22;20007;-80
2022/11/07 11:20:29;;;;;;;13.55;3.28;;;;;;;13.18;87.97;100893.09;6272509;22;20004;-81
2022/11/07 11:22:55;;;;;;;12.57;3.33;;;;;;;13.17;87.70;100900.25;6272204;22;20004;-81
2022/11/07 11:25:22;;;;;;;12.10;4.15;;;;;;;13.15;87.71;100898.63;6271544;22;20007;-81
2022/11/07 11:27:54;;;;;;;11.02;3.17;;;;;;;13.15;88.08;100890.59;6270062;22;20019;-81
2022/11/07 11:30:20;;;;;;;10.05;3.08;;;;;;;13.25;87.54;100899.84;6271084;22;20014;-81
2022/11/07 11:32:51;;;;;;;11.27;3.15;;;;;;;13.40;86.12;100884.66;6269445;22;20004;-81